sensor_id;sensor_type;location;lat;lon;timestamp;temperature;humidity
10300;DHT22;5195;48.562;9.192;2022-09-09T00:02:04;19.50;46.20
10300;DHT22;5195;48.562;9.192;2022-09-09T00:04:30;19.70;45.90
10300;DHT22;5195;48.562;9.192;2022-09-09T00:07:18;20.10;44.80
10300;DHT22;5195;48.562;9.192;2022-09-09T00:09:25;20.40;44.10
10300;DHT22;5195;48.562;9.192;2022-09-09T00:17:09;20.00;45.00
10300;DHT22;5195;48.562;9.192;2022-09-09T00:19:45;20.10;44.70
10300;DHT22;5195;48.562;9.192;2022-09-09T00:24:41;20.60;44.30
10300;DHT22;5195;48.562;9.192;2022-09-09T00:27:05;20.30;44.60
10300;DHT22;5195;48.562;9.192;2022-09-09T00:29:54;20.00;45.30
10300;DHT22;5195;48.562;9.192;2022-09-09T00:32:13;19.70;45.80
10300;DHT22;5195;48.562;9.192;2022-09-09T00:34:37;19.50;46.10
10300;DHT22;5195;48.562;9.192;2022-09-09T00:37:02;19.80;45.30
10300;DHT22;5195;48.562;9.192;2022-09-09T00:39:37;19.80;45.50
10300;DHT22;5195;48.562;9.192;2022-09-09T00:42:18;19.90;44.80
10300;DHT22;5195;48.562;9.192;2022-09-09T00:47:45;20.10;45.00
10300;DHT22;5195;48.562;9.192;2022-09-09T00:53:05;20.00;45.00
10300;DHT22;5195;48.562;9.192;2022-09-09T00:55:48;20.10;44.80
10300;DHT22;5195;48.562;9.192;2022-09-09T00:58:12;20.40;44.40
10300;DHT22;5195;48.562;9.192;2022-09-09T01:00:48;20.60;43.80
10300;DHT22;5195;48.562;9.192;2022-09-09T01:03:29;20.70;43.50
10300;DHT22;5195;48.562;9.192;2022-09-09T01:08:39;20.40;44.60
10300;DHT22;5195;48.562;9.192;2022-09-09T01:11:00;20.10;44.90
10300;DHT22;5195;48.562;9.192;2022-09-09T01:13:30;19.70;45.50
10300;DHT22;5195;48.562;9.192;2022-09-09T01:15:58;19.80;45.50
10300;DHT22;5195;48.562;9.192;2022-09-09T01:18:25;19.70;45.80
10300;DHT22;5195;48.562;9.192;2022-09-09T01:21:13;19.50;46.20
10300;DHT22;5195;48.562;9.192;2022-09-09T01:26:32;19.60;45.50
10300;DHT22;5195;48.562;9.192;2022-09-09T01:28:56;20.00;44.70
10300;DHT22;5195;48.562;9.192;2022-09-09T01:31:32;19.80;45.00
10300;DHT22;5195;48.562;9.192;2022-09-09T01:33:54;19.90;44.50
10300;DHT22;5195;48.562;9.192;2022-09-09T01:39:26;20.30;44.00
10300;DHT22;5195;48.562;9.192;2022-09-09T01:41:53;19.90;44.60
10300;DHT22;5195;48.562;9.192;2022-09-09T01:44:18;19.50;45.20
10300;DHT22;5195;48.562;9.192;2022-09-09T01:46:44;19.50;45.20
10300;DHT22;5195;48.562;9.192;2022-09-09T01:49:09;19.40;45.50
10300;DHT22;5195;48.562;9.192;2022-09-09T01:51:36;19.50;45.60
10300;DHT22;5195;48.562;9.192;2022-09-09T01:54:00;19.40;45.90
10300;DHT22;5195;48.562;9.192;2022-09-09T01:56:39;19.40;45.80
10300;DHT22;5195;48.562;9.192;2022-09-09T02:02:17;19.30;46.00
10300;DHT22;5195;48.562;9.192;2022-09-09T02:04:50;19.10;46.20
10300;DHT22;5195;48.562;9.192;2022-09-09T02:09:47;19.50;45.80
10300;DHT22;5195;48.562;9.192;2022-09-09T02:12:13;19.70;45.40
10300;DHT22;5195;48.562;9.192;2022-09-09T02:14:40;19.40;45.60
10300;DHT22;5195;48.562;9.192;2022-09-09T02:17:11;19.40;45.80
10300;DHT22;5195;48.562;9.192;2022-09-09T02:19:42;19.60;45.50
10300;DHT22;5195;48.562;9.192;2022-09-09T02:22:05;19.30;45.90
10300;DHT22;5195;48.562;9.192;2022-09-09T02:24:32;19.40;46.50
10300;DHT22;5195;48.562;9.192;2022-09-09T02:26:56;19.60;48.20
10300;DHT22;5195;48.562;9.192;2022-09-09T02:29:26;19.40;48.00
10300;DHT22;5195;48.562;9.192;2022-09-09T02:31:51;19.30;47.80
10300;DHT22;5195;48.562;9.192;2022-09-09T02:34:18;19.10;48.10
10300;DHT22;5195;48.562;9.192;2022-09-09T02:36:44;18.80;48.70
10300;DHT22;5195;48.562;9.192;2022-09-09T02:39:09;18.80;48.90
10300;DHT22;5195;48.562;9.192;2022-09-09T02:41:36;19.10;48.70
10300;DHT22;5195;48.562;9.192;2022-09-09T02:44:05;19.20;48.40
10300;DHT22;5195;48.562;9.192;2022-09-09T02:46:52;19.30;48.10
10300;DHT22;5195;48.562;9.192;2022-09-09T02:52:26;19.00;48.30
10300;DHT22;5195;48.562;9.192;2022-09-09T02:54:47;18.60;49.20
10300;DHT22;5195;48.562;9.192;2022-09-09T02:57:17;18.70;49.40
10300;DHT22;5195;48.562;9.192;2022-09-09T02:59:40;18.60;49.40
10300;DHT22;5195;48.562;9.192;2022-09-09T03:02:06;18.70;49.30
10300;DHT22;5195;48.562;9.192;2022-09-09T03:04:33;18.90;49.10
10300;DHT22;5195;48.562;9.192;2022-09-09T03:06:59;19.10;48.50
10300;DHT22;5195;48.562;9.192;2022-09-09T03:09:24;19.20;48.20
10300;DHT22;5195;48.562;9.192;2022-09-09T03:11:53;19.30;48.20
10300;DHT22;5195;48.562;9.192;2022-09-09T03:14:18;19.00;48.60
10300;DHT22;5195;48.562;9.192;2022-09-09T03:16:44;18.90;48.80
10300;DHT22;5195;48.562;9.192;2022-09-09T03:19:09;18.70;49.10
10300;DHT22;5195;48.562;9.192;2022-09-09T03:21:36;18.70;49.10
10300;DHT22;5195;48.562;9.192;2022-09-09T03:24:02;18.60;49.40
10300;DHT22;5195;48.562;9.192;2022-09-09T03:26:27;18.30;50.50
10300;DHT22;5195;48.562;9.192;2022-09-09T03:28:54;18.40;50.20
10300;DHT22;5195;48.562;9.192;2022-09-09T03:31:21;18.30;50.20
10300;DHT22;5195;48.562;9.192;2022-09-09T03:33:46;18.10;50.50
10300;DHT22;5195;48.562;9.192;2022-09-09T03:36:12;18.20;50.40
10300;DHT22;5195;48.562;9.192;2022-09-09T03:38:37;18.60;49.90
10300;DHT22;5195;48.562;9.192;2022-09-09T03:41:03;18.50;49.90
10300;DHT22;5195;48.562;9.192;2022-09-09T03:43:28;18.60;49.40
10300;DHT22;5195;48.562;9.192;2022-09-09T03:45:54;18.60;49.60
10300;DHT22;5195;48.562;9.192;2022-09-09T03:48:20;18.30;49.90
10300;DHT22;5195;48.562;9.192;2022-09-09T03:50:50;18.20;50.40
10300;DHT22;5195;48.562;9.192;2022-09-09T03:53:16;18.00;50.60
10300;DHT22;5195;48.562;9.192;2022-09-09T03:55:44;18.30;50.70
10300;DHT22;5195;48.562;9.192;2022-09-09T03:58:09;18.60;49.80
10300;DHT22;5195;48.562;9.192;2022-09-09T04:00:35;18.60;49.90
10300;DHT22;5195;48.562;9.192;2022-09-09T04:03:00;18.40;50.30
10300;DHT22;5195;48.562;9.192;2022-09-09T04:05:26;18.20;50.60
10300;DHT22;5195;48.562;9.192;2022-09-09T04:07:52;18.40;50.80
10300;DHT22;5195;48.562;9.192;2022-09-09T04:10:18;18.50;50.70
10300;DHT22;5195;48.562;9.192;2022-09-09T04:12:43;18.60;49.20
10300;DHT22;5195;48.562;9.192;2022-09-09T04:15:09;18.60;49.20
10300;DHT22;5195;48.562;9.192;2022-09-09T04:17:35;18.40;49.60
10300;DHT22;5195;48.562;9.192;2022-09-09T04:20:00;18.60;49.30
10300;DHT22;5195;48.562;9.192;2022-09-09T04:22:26;19.00;48.80
10300;DHT22;5195;48.562;9.192;2022-09-09T04:24:52;18.90;49.60
10300;DHT22;5195;48.562;9.192;2022-09-09T04:27:17;18.60;49.20
10300;DHT22;5195;48.562;9.192;2022-09-09T04:29:44;18.40;49.60
10300;DHT22;5195;48.562;9.192;2022-09-09T04:32:10;18.60;49.20
10300;DHT22;5195;48.562;9.192;2022-09-09T04:34:35;18.50;49.30
10300;DHT22;5195;48.562;9.192;2022-09-09T04:37:01;18.30;49.70
10300;DHT22;5195;48.562;9.192;2022-09-09T04:39:26;18.50;49.70
10300;DHT22;5195;48.562;9.192;2022-09-09T04:41:52;18.90;49.30
10300;DHT22;5195;48.562;9.192;2022-09-09T04:44:17;19.20;49.00
10300;DHT22;5195;48.562;9.192;2022-09-09T04:46:43;19.10;49.10
10300;DHT22;5195;48.562;9.192;2022-09-09T04:49:09;18.90;49.60
10300;DHT22;5195;48.562;9.192;2022-09-09T04:51:52;19.00;49.40
10300;DHT22;5195;48.562;9.192;2022-09-09T04:57:48;19.10;49.10
10300;DHT22;5195;48.562;9.192;2022-09-09T05:00:15;18.90;49.60
10300;DHT22;5195;48.562;9.192;2022-09-09T05:02:44;19.00;49.90
10300;DHT22;5195;48.562;9.192;2022-09-09T05:05:12;18.90;49.90
10300;DHT22;5195;48.562;9.192;2022-09-09T05:07:39;18.60;50.20
10300;DHT22;5195;48.562;9.192;2022-09-09T05:10:09;18.50;50.70
10300;DHT22;5195;48.562;9.192;2022-09-09T05:12:36;18.60;50.80
10300;DHT22;5195;48.562;9.192;2022-09-09T05:15:01;18.60;50.80
10300;DHT22;5195;48.562;9.192;2022-09-09T05:17:27;18.80;50.70
10300;DHT22;5195;48.562;9.192;2022-09-09T05:19:56;18.80;50.70
10300;DHT22;5195;48.562;9.192;2022-09-09T05:22:22;18.50;51.00
10300;DHT22;5195;48.562;9.192;2022-09-09T05:24:48;18.40;51.40
10300;DHT22;5195;48.562;9.192;2022-09-09T05:27:13;18.30;51.70
10300;DHT22;5195;48.562;9.192;2022-09-09T05:29:40;18.20;52.00
10300;DHT22;5195;48.562;9.192;2022-09-09T05:32:06;18.20;52.40
10300;DHT22;5195;48.562;9.192;2022-09-09T05:34:32;18.10;52.90
10300;DHT22;5195;48.562;9.192;2022-09-09T05:36:58;18.10;52.50
10300;DHT22;5195;48.562;9.192;2022-09-09T05:39:23;18.10;52.60
10300;DHT22;5195;48.562;9.192;2022-09-09T05:41:49;18.10;52.80
10300;DHT22;5195;48.562;9.192;2022-09-09T05:44:14;18.10;52.90
10300;DHT22;5195;48.562;9.192;2022-09-09T05:46:40;18.10;52.90
10300;DHT22;5195;48.562;9.192;2022-09-09T05:49:07;18.50;52.90
10300;DHT22;5195;48.562;9.192;2022-09-09T05:51:32;18.70;52.50
10300;DHT22;5195;48.562;9.192;2022-09-09T05:54:00;18.60;52.50
10300;DHT22;5195;48.562;9.192;2022-09-09T05:56:26;18.90;52.30
10300;DHT22;5195;48.562;9.192;2022-09-09T05:58:51;19.00;52.10
10300;DHT22;5195;48.562;9.192;2022-09-09T06:01:18;18.90;52.20
10300;DHT22;5195;48.562;9.192;2022-09-09T06:03:42;18.80;52.30
10300;DHT22;5195;48.562;9.192;2022-09-09T06:06:14;19.50;51.30
10300;DHT22;5195;48.562;9.192;2022-09-09T06:08:36;19.50;51.30
10300;DHT22;5195;48.562;9.192;2022-09-09T06:11:20;19.80;50.80
10300;DHT22;5195;48.562;9.192;2022-09-09T06:13:44;19.80;50.80
10300;DHT22;5195;48.562;9.192;2022-09-09T06:16:11;19.60;51.20
10300;DHT22;5195;48.562;9.192;2022-09-09T06:18:36;19.40;51.30
10300;DHT22;5195;48.562;9.192;2022-09-09T06:21:03;19.60;51.40
10300;DHT22;5195;48.562;9.192;2022-09-09T06:23:27;20.00;50.60
10300;DHT22;5195;48.562;9.192;2022-09-09T06:26:07;20.00;50.50
10300;DHT22;5195;48.562;9.192;2022-09-09T06:28:35;19.80;50.50
10300;DHT22;5195;48.562;9.192;2022-09-09T06:31:02;19.60;50.80
10300;DHT22;5195;48.562;9.192;2022-09-09T06:33:30;19.80;50.80
10300;DHT22;5195;48.562;9.192;2022-09-09T06:35:54;19.90;50.90
10300;DHT22;5195;48.562;9.192;2022-09-09T06:38:21;20.10;51.20
10300;DHT22;5195;48.562;9.192;2022-09-09T06:40:51;20.20;50.60
10300;DHT22;5195;48.562;9.192;2022-09-09T06:43:15;20.60;49.60
10300;DHT22;5195;48.562;9.192;2022-09-09T06:45:41;20.70;49.50
10300;DHT22;5195;48.562;9.192;2022-09-09T06:48:07;21.00;48.80
10300;DHT22;5195;48.562;9.192;2022-09-09T06:50:32;21.40;48.20
10300;DHT22;5195;48.562;9.192;2022-09-09T06:52:59;21.40;48.20
10300;DHT22;5195;48.562;9.192;2022-09-09T06:55:24;21.20;48.40
10300;DHT22;5195;48.562;9.192;2022-09-09T06:57:50;21.10;48.80
10300;DHT22;5195;48.562;9.192;2022-09-09T07:00:15;21.30;48.60
10300;DHT22;5195;48.562;9.192;2022-09-09T07:02:41;21.40;48.60
10300;DHT22;5195;48.562;9.192;2022-09-09T07:05:09;21.30;48.70
10300;DHT22;5195;48.562;9.192;2022-09-09T07:07:36;21.60;47.60
10300;DHT22;5195;48.562;9.192;2022-09-09T07:10:02;22.00;47.10
10300;DHT22;5195;48.562;9.192;2022-09-09T07:12:27;22.00;47.30
10300;DHT22;5195;48.562;9.192;2022-09-09T07:14:53;21.90;47.60
10300;DHT22;5195;48.562;9.192;2022-09-09T07:17:19;22.60;46.20
10300;DHT22;5195;48.562;9.192;2022-09-09T07:19:45;22.60;46.20
10300;DHT22;5195;48.562;9.192;2022-09-09T07:22:10;22.60;46.10
10300;DHT22;5195;48.562;9.192;2022-09-09T07:24:37;22.50;46.50
10300;DHT22;5195;48.562;9.192;2022-09-09T07:27:04;22.60;45.90
10300;DHT22;5195;48.562;9.192;2022-09-09T07:29:31;23.30;45.60
10300;DHT22;5195;48.562;9.192;2022-09-09T07:31:56;23.30;45.60
10300;DHT22;5195;48.562;9.192;2022-09-09T07:34:22;23.20;45.70
10300;DHT22;5195;48.562;9.192;2022-09-09T07:36:47;23.40;45.30
10300;DHT22;5195;48.562;9.192;2022-09-09T07:39:13;23.40;45.70
10300;DHT22;5195;48.562;9.192;2022-09-09T07:41:41;23.50;45.50
10300;DHT22;5195;48.562;9.192;2022-09-09T07:44:15;23.60;45.90
10300;DHT22;5195;48.562;9.192;2022-09-09T07:46:30;23.70;45.10
10300;DHT22;5195;48.562;9.192;2022-09-09T07:48:56;24.00;44.50
10300;DHT22;5195;48.562;9.192;2022-09-09T07:51:25;24.20;43.80
10300;DHT22;5195;48.562;9.192;2022-09-09T07:53:54;24.20;43.90
10300;DHT22;5195;48.562;9.192;2022-09-09T07:56:19;24.30;44.30
10300;DHT22;5195;48.562;9.192;2022-09-09T07:58:45;24.30;43.80
10300;DHT22;5195;48.562;9.192;2022-09-09T08:01:12;24.40;43.50
10300;DHT22;5195;48.562;9.192;2022-09-09T08:03:35;24.00;43.90
10300;DHT22;5195;48.562;9.192;2022-09-09T08:06:06;23.90;44.00
10300;DHT22;5195;48.562;9.192;2022-09-09T08:08:27;24.00;43.90
10300;DHT22;5195;48.562;9.192;2022-09-09T08:10:52;24.00;43.90
10300;DHT22;5195;48.562;9.192;2022-09-09T08:13:18;24.10;43.90
10300;DHT22;5195;48.562;9.192;2022-09-09T08:15:43;24.20;44.50
10300;DHT22;5195;48.562;9.192;2022-09-09T08:18:09;24.40;44.10
10300;DHT22;5195;48.562;9.192;2022-09-09T08:20:35;24.30;44.30
10300;DHT22;5195;48.562;9.192;2022-09-09T08:23:00;24.00;44.80
10300;DHT22;5195;48.562;9.192;2022-09-09T08:25:26;23.70;45.30
10300;DHT22;5195;48.562;9.192;2022-09-09T08:27:53;23.90;45.20
10300;DHT22;5195;48.562;9.192;2022-09-09T08:30:18;23.90;45.60
10300;DHT22;5195;48.562;9.192;2022-09-09T08:32:44;24.10;45.90
10300;DHT22;5195;48.562;9.192;2022-09-09T08:35:11;24.80;44.00
10300;DHT22;5195;48.562;9.192;2022-09-09T08:37:37;24.80;44.00
10300;DHT22;5195;48.562;9.192;2022-09-09T08:40:02;24.80;44.20
10300;DHT22;5195;48.562;9.192;2022-09-09T08:42:34;25.00;43.70
10300;DHT22;5195;48.562;9.192;2022-09-09T08:53:11;25.60;43.30
10300;DHT22;5195;48.562;9.192;2022-09-09T08:55:52;25.80;43.60
10300;DHT22;5195;48.562;9.192;2022-09-09T08:58:19;26.10;42.10
10300;DHT22;5195;48.562;9.192;2022-09-09T09:03:54;26.10;42.40
10300;DHT22;5195;48.562;9.192;2022-09-09T09:11:53;25.20;43.40
10300;DHT22;5195;48.562;9.192;2022-09-09T09:14:21;25.00;43.90
10300;DHT22;5195;48.562;9.192;2022-09-09T09:16:57;25.20;42.80
10300;DHT22;5195;48.562;9.192;2022-09-09T09:19:19;25.20;42.80
10300;DHT22;5195;48.562;9.192;2022-09-09T09:21:45;25.60;41.70
10300;DHT22;5195;48.562;9.192;2022-09-09T09:24:20;26.00;41.30
10300;DHT22;5195;48.562;9.192;2022-09-09T09:26:45;26.40;40.20
10300;DHT22;5195;48.562;9.192;2022-09-09T09:29:13;26.30;40.90
10300;DHT22;5195;48.562;9.192;2022-09-09T09:31:37;26.70;39.40
10300;DHT22;5195;48.562;9.192;2022-09-09T09:34:03;26.70;39.30
10300;DHT22;5195;48.562;9.192;2022-09-09T09:36:43;26.90;39.40
10300;DHT22;5195;48.562;9.192;2022-09-09T09:39:07;26.90;39.80
10300;DHT22;5195;48.562;9.192;2022-09-09T09:41:38;26.90;39.80
10300;DHT22;5195;48.562;9.192;2022-09-09T09:44:04;26.80;40.50
10300;DHT22;5195;48.562;9.192;2022-09-09T09:46:29;26.60;40.70
10300;DHT22;5195;48.562;9.192;2022-09-09T09:48:59;27.10;38.60
10300;DHT22;5195;48.562;9.192;2022-09-09T09:51:25;27.10;38.60
10300;DHT22;5195;48.562;9.192;2022-09-09T09:53:51;27.10;38.50
10300;DHT22;5195;48.562;9.192;2022-09-09T09:56:16;26.90;39.00
10300;DHT22;5195;48.562;9.192;2022-09-09T10:01:30;26.60;39.80
10300;DHT22;5195;48.562;9.192;2022-09-09T10:04:16;26.60;38.40
10300;DHT22;5195;48.562;9.192;2022-09-09T10:06:40;26.80;39.20
10300;DHT22;5195;48.562;9.192;2022-09-09T10:09:30;26.60;38.70
10300;DHT22;5195;48.562;9.192;2022-09-09T10:18:04;25.80;39.30
10300;DHT22;5195;48.562;9.192;2022-09-09T10:26:03;25.60;40.30
10300;DHT22;5195;48.562;9.192;2022-09-09T10:28:31;26.00;39.80
10300;DHT22;5195;48.562;9.192;2022-09-09T10:36:22;27.40;39.20
10300;DHT22;5195;48.562;9.192;2022-09-09T10:38:47;27.50;37.80
10300;DHT22;5195;48.562;9.192;2022-09-09T10:44:18;27.30;38.20
10300;DHT22;5195;48.562;9.192;2022-09-09T10:46:57;27.50;37.00
10300;DHT22;5195;48.562;9.192;2022-09-09T10:52:17;27.70;37.10
10300;DHT22;5195;48.562;9.192;2022-09-09T10:57:37;28.20;34.80
10300;DHT22;5195;48.562;9.192;2022-09-09T11:00:05;28.60;34.60
10300;DHT22;5195;48.562;9.192;2022-09-09T11:02:28;28.80;34.10
10300;DHT22;5195;48.562;9.192;2022-09-09T11:05:19;28.70;34.40
10300;DHT22;5195;48.562;9.192;2022-09-09T11:07:55;28.20;35.00
10300;DHT22;5195;48.562;9.192;2022-09-09T11:12:50;28.00;35.10
10300;DHT22;5195;48.562;9.192;2022-09-09T11:15:20;28.10;33.80
10300;DHT22;5195;48.562;9.192;2022-09-09T11:17:52;28.20;34.90
10300;DHT22;5195;48.562;9.192;2022-09-09T11:20:13;28.10;34.60
10300;DHT22;5195;48.562;9.192;2022-09-09T11:22:42;28.10;34.60
10300;DHT22;5195;48.562;9.192;2022-09-09T11:39:21;26.90;35.30
10300;DHT22;5195;48.562;9.192;2022-09-09T11:41:39;26.40;36.20
10300;DHT22;5195;48.562;9.192;2022-09-09T11:44:17;26.40;36.00
10300;DHT22;5195;48.562;9.192;2022-09-09T11:46:38;26.20;36.30
10300;DHT22;5195;48.562;9.192;2022-09-09T11:49:06;26.00;36.70
10300;DHT22;5195;48.562;9.192;2022-09-09T11:51:33;25.80;36.90
10300;DHT22;5195;48.562;9.192;2022-09-09T11:56:32;25.80;37.00
10300;DHT22;5195;48.562;9.192;2022-09-09T11:58:58;26.20;36.30
10300;DHT22;5195;48.562;9.192;2022-09-09T12:01:36;26.70;34.70
10300;DHT22;5195;48.562;9.192;2022-09-09T12:04:21;27.20;34.70
10300;DHT22;5195;48.562;9.192;2022-09-09T12:17:37;27.40;32.70
10300;DHT22;5195;48.562;9.192;2022-09-09T12:23:13;27.00;32.90
10300;DHT22;5195;48.562;9.192;2022-09-09T12:28:18;26.50;34.10
10300;DHT22;5195;48.562;9.192;2022-09-09T12:33:42;26.60;34.10
10300;DHT22;5195;48.562;9.192;2022-09-09T12:36:08;26.60;34.20
10300;DHT22;5195;48.562;9.192;2022-09-09T12:38:35;26.60;34.50
10300;DHT22;5195;48.562;9.192;2022-09-09T12:40:59;26.50;34.50
10300;DHT22;5195;48.562;9.192;2022-09-09T12:43:25;26.60;34.80
10300;DHT22;5195;48.562;9.192;2022-09-09T12:45:51;26.40;35.10
10300;DHT22;5195;48.562;9.192;2022-09-09T12:48:17;26.50;34.90
10300;DHT22;5195;48.562;9.192;2022-09-09T12:50:46;26.70;34.60
10300;DHT22;5195;48.562;9.192;2022-09-09T12:53:22;26.90;34.60
10300;DHT22;5195;48.562;9.192;2022-09-09T12:55:53;26.80;34.70
10300;DHT22;5195;48.562;9.192;2022-09-09T12:58:14;26.50;34.90
10300;DHT22;5195;48.562;9.192;2022-09-09T13:00:48;26.30;35.00
10300;DHT22;5195;48.562;9.192;2022-09-09T13:03:16;25.80;35.00
10300;DHT22;5195;48.562;9.192;2022-09-09T13:05:39;25.70;34.90
10300;DHT22;5195;48.562;9.192;2022-09-09T13:08:06;25.50;35.30
10300;DHT22;5195;48.562;9.192;2022-09-09T13:10:46;25.40;35.60
10300;DHT22;5195;48.562;9.192;2022-09-09T13:13:16;25.40;35.80
10300;DHT22;5195;48.562;9.192;2022-09-09T13:15:47;25.70;35.80
10300;DHT22;5195;48.562;9.192;2022-09-09T13:18:10;26.20;34.40
10300;DHT22;5195;48.562;9.192;2022-09-09T13:20:32;26.30;34.80
10300;DHT22;5195;48.562;9.192;2022-09-09T13:22:58;26.60;34.10
10300;DHT22;5195;48.562;9.192;2022-09-09T13:25:27;26.70;34.00
10300;DHT22;5195;48.562;9.192;2022-09-09T13:28:00;26.80;33.80
10300;DHT22;5195;48.562;9.192;2022-09-09T13:30:30;26.50;34.20
10300;DHT22;5195;48.562;9.192;2022-09-09T13:35:29;26.60;33.90
10300;DHT22;5195;48.562;9.192;2022-09-09T13:37:54;26.50;34.10
10300;DHT22;5195;48.562;9.192;2022-09-09T13:40:21;26.20;34.40
10300;DHT22;5195;48.562;9.192;2022-09-09T13:42:45;26.30;34.30
10300;DHT22;5195;48.562;9.192;2022-09-09T13:45:19;26.30;34.80
10300;DHT22;5195;48.562;9.192;2022-09-09T13:47:44;26.20;34.80
10300;DHT22;5195;48.562;9.192;2022-09-09T13:50:27;26.30;34.80
10300;DHT22;5195;48.562;9.192;2022-09-09T13:52:53;26.40;33.50
10300;DHT22;5195;48.562;9.192;2022-09-09T13:55:19;26.40;33.80
10300;DHT22;5195;48.562;9.192;2022-09-09T13:58:01;26.20;33.90
10300;DHT22;5195;48.562;9.192;2022-09-09T14:00:34;25.80;34.20
10300;DHT22;5195;48.562;9.192;2022-09-09T14:02:57;25.50;34.70
10300;DHT22;5195;48.562;9.192;2022-09-09T14:05:23;25.60;35.10
10300;DHT22;5195;48.562;9.192;2022-09-09T14:07:49;26.20;33.90
10300;DHT22;5195;48.562;9.192;2022-09-09T14:10:15;26.20;34.40
10300;DHT22;5195;48.562;9.192;2022-09-09T14:12:41;26.40;33.80
10300;DHT22;5195;48.562;9.192;2022-09-09T14:15:09;26.60;33.80
10300;DHT22;5195;48.562;9.192;2022-09-09T14:17:33;26.40;33.80
10300;DHT22;5195;48.562;9.192;2022-09-09T14:19:58;26.20;33.90
10300;DHT22;5195;48.562;9.192;2022-09-09T14:22:24;25.90;33.80
10300;DHT22;5195;48.562;9.192;2022-09-09T14:24:49;25.90;32.80
10300;DHT22;5195;48.562;9.192;2022-09-09T14:27:15;25.90;33.50
10300;DHT22;5195;48.562;9.192;2022-09-09T14:29:41;25.90;33.40
10300;DHT22;5195;48.562;9.192;2022-09-09T14:32:07;25.90;33.40
10300;DHT22;5195;48.562;9.192;2022-09-09T14:34:32;26.00;33.00
10300;DHT22;5195;48.562;9.192;2022-09-09T14:36:58;26.20;32.70
10300;DHT22;5195;48.562;9.192;2022-09-09T14:39:23;26.10;32.90
10300;DHT22;5195;48.562;9.192;2022-09-09T14:41:49;26.20;32.90
10300;DHT22;5195;48.562;9.192;2022-09-09T14:44:14;26.30;32.80
10300;DHT22;5195;48.562;9.192;2022-09-09T14:46:40;26.20;33.00
10300;DHT22;5195;48.562;9.192;2022-09-09T14:49:06;26.20;33.30
10300;DHT22;5195;48.562;9.192;2022-09-09T14:51:33;26.40;32.80
10300;DHT22;5195;48.562;9.192;2022-09-09T14:53:59;26.30;32.90
10300;DHT22;5195;48.562;9.192;2022-09-09T14:56:27;26.20;33.30
10300;DHT22;5195;48.562;9.192;2022-09-09T14:58:49;26.00;33.50
10300;DHT22;5195;48.562;9.192;2022-09-09T15:01:16;25.80;33.60
10300;DHT22;5195;48.562;9.192;2022-09-09T15:03:41;25.70;33.80
10300;DHT22;5195;48.562;9.192;2022-09-09T15:06:07;25.80;33.70
10300;DHT22;5195;48.562;9.192;2022-09-09T15:08:32;26.10;32.80
10300;DHT22;5195;48.562;9.192;2022-09-09T15:11:04;26.00;33.10
10300;DHT22;5195;48.562;9.192;2022-09-09T15:13:29;25.80;33.50
10300;DHT22;5195;48.562;9.192;2022-09-09T15:15:55;25.60;33.90
10300;DHT22;5195;48.562;9.192;2022-09-09T15:18:21;25.70;33.10
10300;DHT22;5195;48.562;9.192;2022-09-09T15:20:47;25.60;33.00
10300;DHT22;5195;48.562;9.192;2022-09-09T15:23:13;25.50;33.00
10300;DHT22;5195;48.562;9.192;2022-09-09T15:25:39;25.60;32.40
10300;DHT22;5195;48.562;9.192;2022-09-09T15:28:04;25.70;32.80
10300;DHT22;5195;48.562;9.192;2022-09-09T15:30:31;25.50;32.80
10300;DHT22;5195;48.562;9.192;2022-09-09T15:32:58;25.30;32.50
10300;DHT22;5195;48.562;9.192;2022-09-09T15:35:23;25.00;32.90
10300;DHT22;5195;48.562;9.192;2022-09-09T15:37:49;24.70;32.80
10300;DHT22;5195;48.562;9.192;2022-09-09T15:40:15;24.80;32.50
10300;DHT22;5195;48.562;9.192;2022-09-09T15:42:40;24.60;32.60
10300;DHT22;5195;48.562;9.192;2022-09-09T15:45:06;24.70;32.60
10300;DHT22;5195;48.562;9.192;2022-09-09T15:47:32;24.90;32.30
10300;DHT22;5195;48.562;9.192;2022-09-09T15:49:57;25.00;32.40
10300;DHT22;5195;48.562;9.192;2022-09-09T15:52:23;25.20;32.30
10300;DHT22;5195;48.562;9.192;2022-09-09T15:54:49;24.60;34.70
10300;DHT22;5195;48.562;9.192;2022-09-09T15:57:15;24.50;33.80
10300;DHT22;5195;48.562;9.192;2022-09-09T15:59:42;24.60;34.80
10300;DHT22;5195;48.562;9.192;2022-09-09T16:02:08;24.80;34.00
10300;DHT22;5195;48.562;9.192;2022-09-09T16:04:33;24.90;32.80
10300;DHT22;5195;48.562;9.192;2022-09-09T16:06:59;25.00;32.50
10300;DHT22;5195;48.562;9.192;2022-09-09T16:09:25;24.70;32.30
10300;DHT22;5195;48.562;9.192;2022-09-09T16:11:51;24.30;32.50
10300;DHT22;5195;48.562;9.192;2022-09-09T16:14:16;24.00;32.50
10300;DHT22;5195;48.562;9.192;2022-09-09T16:16:43;23.80;32.80
10300;DHT22;5195;48.562;9.192;2022-09-09T16:19:11;23.90;32.20
10300;DHT22;5195;48.562;9.192;2022-09-09T16:21:37;24.20;31.70
10300;DHT22;5195;48.562;9.192;2022-09-09T16:24:02;24.50;31.60
10300;DHT22;5195;48.562;9.192;2022-09-09T16:26:27;24.30;31.70
10300;DHT22;5195;48.562;9.192;2022-09-09T16:28:52;24.30;31.60
10300;DHT22;5195;48.562;9.192;2022-09-09T16:31:19;24.10;32.00
10300;DHT22;5195;48.562;9.192;2022-09-09T16:33:44;23.80;33.10
10300;DHT22;5195;48.562;9.192;2022-09-09T16:36:10;23.90;33.10
10300;DHT22;5195;48.562;9.192;2022-09-09T16:38:36;23.50;33.80
10300;DHT22;5195;48.562;9.192;2022-09-09T16:41:02;23.50;33.80
10300;DHT22;5195;48.562;9.192;2022-09-09T16:43:27;23.60;34.10
10300;DHT22;5195;48.562;9.192;2022-09-09T16:45:52;23.50;34.10
10300;DHT22;5195;48.562;9.192;2022-09-09T16:48:18;23.30;34.60
10300;DHT22;5195;48.562;9.192;2022-09-09T16:50:43;23.40;35.00
10300;DHT22;5195;48.562;9.192;2022-09-09T16:53:13;23.30;35.00
10300;DHT22;5195;48.562;9.192;2022-09-09T16:55:40;23.40;35.10
10300;DHT22;5195;48.562;9.192;2022-09-09T16:58:07;23.40;35.50
10300;DHT22;5195;48.562;9.192;2022-09-09T17:00:32;23.40;35.50
10300;DHT22;5195;48.562;9.192;2022-09-09T17:02:57;23.20;35.50
10300;DHT22;5195;48.562;9.192;2022-09-09T17:05:23;22.90;35.80
10300;DHT22;5195;48.562;9.192;2022-09-09T17:07:48;23.10;36.30
10300;DHT22;5195;48.562;9.192;2022-09-09T17:10:14;23.00;36.20
10300;DHT22;5195;48.562;9.192;2022-09-09T17:12:42;22.60;37.00
10300;DHT22;5195;48.562;9.192;2022-09-09T17:15:08;22.40;37.90
10300;DHT22;5195;48.562;9.192;2022-09-09T17:17:34;22.30;37.20
10300;DHT22;5195;48.562;9.192;2022-09-09T17:19:59;22.20;37.40
10300;DHT22;5195;48.562;9.192;2022-09-09T17:22:26;22.10;37.70
10300;DHT22;5195;48.562;9.192;2022-09-09T17:24:51;22.40;37.90
10300;DHT22;5195;48.562;9.192;2022-09-09T17:27:18;22.50;37.60
10300;DHT22;5195;48.562;9.192;2022-09-09T17:29:44;22.30;37.80
10300;DHT22;5195;48.562;9.192;2022-09-09T17:32:10;22.60;38.30
10300;DHT22;5195;48.562;9.192;2022-09-09T17:34:35;22.80;38.00
10300;DHT22;5195;48.562;9.192;2022-09-09T17:37:01;22.80;38.00
10300;DHT22;5195;48.562;9.192;2022-09-09T17:39:28;23.10;37.60
10300;DHT22;5195;48.562;9.192;2022-09-09T17:41:54;23.00;37.50
10300;DHT22;5195;48.562;9.192;2022-09-09T17:44:21;23.20;37.60
10300;DHT22;5195;48.562;9.192;2022-09-09T17:46:47;23.00;37.60